KOKC

Will Rogers World Airport

Airport
ICAO code
KOKC
Summary
ICAO Region
NAM
ICAO Territory
Location

Oklahoma City, Oklahoma,

Coordinates
35° 23' 44" N , 97° 35' 49" W
KCC
Airport LOS
Parallel Runway Operation
Metar
KOKC 202052Z 15019G27KT 10SM SCT250 25/01 A3000 RMK AO2 PK WND 15029/2007 SLP154 T02500011 56040

Description

Will Rogers World Airport, also known as Will Rogers Airport or simply Will Rogers, is a joint civil-military (ANG) airport located 8 km southwest of the central business district of Oklahoma City, Oklahoma.

Climatology

Humid “subtropical” climate (Köppen climate classification Cfa) - characterized by hot, humid summers and cool winters. Significant amounts of precipitation occur in all seasons in most areas. Winter rainfall (and sometimes snowfall) is associated with large storms that the westerlies steer from west to east. Most summer rainfall occurs during thunderstorms and occasional tropical storms (hurricanes).

Runways

Designator Length Width Surface Rops
18/36 938 23 ASP Yes/Yes
13/31 2377 46 PEM Yes/Yes
17R/35L 2987 46 CON Yes/Yes
17L/35R 2988 46 CON Yes/Yes

Airport map

Aerial View

SKYbrary Partners:

Safety knowledge contributed by: